Time;durP1;ratioP1;P1;durP2;ratioP2;P2;SDS_P1;SDS_P2;PMS_P1;PMS_P2;Temp;Humidity;BMP_temperature;BMP_pressure;BME280_temperature;BME280_humidity;BME280_pressure;Samples;Min_cycle;Max_cycle;Signal;HPM_P1;HPM_P2
2022/09/15 00:01:10;;;;;;;11.63;9.55;;;;;;;21.20;63.43;92478.97;4944904;28;20053;-86
2022/09/15 00:03:36;;;;;;;16.27;10.88;;;;;;;21.24;63.41;92476.56;4955951;28;20452;-87
2022/09/15 00:06:01;;;;;;;15.95;10.95;;;;;;;21.22;63.29;92481.88;4951063;28;20046;-87
2022/09/15 00:08:27;;;;;;;15.93;10.23;;;;;;;21.17;63.32;92478.00;4934508;28;20087;-87
2022/09/15 00:10:57;;;;;;;12.23;9.93;;;;;;;21.20;63.27;92470.72;4936887;28;20050;-89
2022/09/15 00:13:22;;;;;;;14.23;10.37;;;;;;;21.18;63.46;92476.72;4965716;28;20053;-87
2022/09/15 00:15:48;;;;;;;12.77;10.07;;;;;;;21.19;63.29;92477.47;4980976;28;20277;-89
2022/09/15 00:18:13;;;;;;;12.82;10.15;;;;;;;21.19;63.34;92480.22;4996508;28;20034;-88
2022/09/15 00:20:42;;;;;;;13.57;9.90;;;;;;;21.19;63.34;92474.72;4958857;28;20399;-86
2022/09/15 00:23:09;;;;;;;13.60;10.95;;;;;;;21.17;63.41;92480.75;4992250;28;20049;-87
2022/09/15 00:25:38;;;;;;;10.57;8.85;;;;;;;21.17;63.34;92480.75;4971099;28;20037;-87
2022/09/15 00:28:04;;;;;;;13.82;9.68;;;;;;;21.19;63.37;92480.22;4976577;28;20546;-87
2022/09/15 00:30:29;;;;;;;13.85;9.77;;;;;;;21.18;63.28;92481.50;4976845;28;20042;-87
2022/09/15 00:32:55;;;;;;;14.10;10.40;;;;;;;21.18;63.34;92487.72;4993688;28;20049;-87
2022/09/15 00:35:20;;;;;;;13.52;9.43;;;;;;;21.18;63.39;92473.25;4977445;28;20361;-88
2022/09/15 00:37:46;;;;;;;14.20;9.25;;;;;;;21.17;63.39;92478.00;4992905;28;20045;-87
2022/09/15 00:40:11;;;;;;;12.63;9.63;;;;;;;21.18;63.24;92467.75;4978407;28;20037;-87
2022/09/15 00:42:37;;;;;;;10.57;9.00;;;;;;;21.18;63.08;92462.25;4981805;28;20340;-88
2022/09/15 00:45:03;;;;;;;12.55;8.85;;;;;;;21.17;63.14;92458.78;4992488;28;20045;-88
2022/09/15 00:47:36;;;;;;;11.20;8.30;;;;;;;21.16;63.42;92467.56;4994162;28;20034;-86
2022/09/15 00:50:06;;;;;;;11.13;8.70;;;;;;;21.17;63.13;92458.78;4978333;28;20040;-88
2022/09/15 00:52:41;;;;;;;12.60;9.63;;;;;;;21.16;63.10;92456.56;4993452;28;20036;-87
2022/09/15 00:55:10;;;;;;;12.15;8.80;;;;;;;21.16;62.97;92456.56;4975434;28;20476;-87
2022/09/15 00:57:47;;;;;;;14.40;9.68;;;;;;;21.16;63.27;92453.84;4984308;28;20090;-87
2022/09/15 01:00:14;;;;;;;11.07;8.35;;;;;;;21.17;63.19;92453.28;4976101;28;20033;-87
2022/09/15 01:02:41;;;;;;;11.52;8.50;;;;;;;21.17;63.11;92436.06;4973148;28;20037;-87
2022/09/15 01:05:09;;;;;;;12.07;9.40;;;;;;;21.17;63.14;92453.28;4957718;28;20038;-87
2022/09/15 01:07:38;;;;;;;9.77;7.88;;;;;;;21.16;63.29;92456.56;4960424;28;20121;-86
2022/09/15 01:10:10;;;;;;;11.15;7.97;;;;;;;21.16;63.16;92462.81;4973753;28;20042;-86
2022/09/15 01:12:36;;;;;;;10.25;8.57;;;;;;;21.16;62.97;92459.31;4962354;28;20042;-87
2022/09/15 01:15:01;;;;;;;13.15;9.18;;;;;;;21.16;62.98;92445.59;5002213;28;20034;-87
2022/09/15 01:17:41;;;;;;;11.88;7.78;;;;;;;21.16;63.01;92451.09;4976234;28;20037;-87
2022/09/15 01:20:22;;;;;;;12.02;7.88;;;;;;;21.13;63.23;92450.16;5025132;28;20033;-88
2022/09/15 01:22:58;;;;;;;10.27;7.93;;;;;;;21.16;63.29;92453.84;5023464;28;20217;-86
2022/09/15 01:25:42;;;;;;;9.10;7.57;;;;;;;21.15;63.07;92446.88;5019302;28;20388;-87
2022/09/15 01:28:19;;;;;;;10.68;8.20;;;;;;;21.15;62.97;92452.38;5006349;28;20077;-87
2022/09/15 01:31:05;;;;;;;10.32;8.07;;;;;;;21.14;63.10;92459.88;5006220;28;20042;-86
2022/09/15 01:33:42;;;;;;;11.13;8.02;;;;;;;21.13;63.20;92455.66;4991266;28;20108;-87
2022/09/15 01:36:20;;;;;;;7.53;6.60;;;;;;;21.13;63.07;92455.66;4992998;28;20040;-89
2022/09/15 01:39:02;;;;;;;9.52;7.13;;;;;;;21.14;63.14;92448.88;5007807;28;20476;-87
2022/09/15 01:41:46;;;;;;;9.45;7.05;;;;;;;21.16;62.95;92448.34;4991028;28;20053;-87
2022/09/15 01:44:13;;;;;;;9.43;7.35;;;;;;;21.14;62.86;92445.41;4977163;28;20034;-87
2022/09/15 01:46:45;;;;;;;9.82;7.30;;;;;;;21.14;62.92;92454.38;5008881;28;20053;-87
2022/09/15 01:49:14;;;;;;;11.07;7.53;;;;;;;21.16;62.83;92448.34;4972639;28;20496;-87
2022/09/15 01:51:39;;;;;;;10.32;7.13;;;;;;;21.15;62.52;92450.34;5025125;28;20092;-86
2022/09/15 01:54:05;;;;;;;10.13;7.28;;;;;;;21.13;63.13;92449.44;4981826;28;20060;-87
2022/09/15 01:56:30;;;;;;;8.10;6.07;;;;;;;21.13;63.14;92452.91;4960380;28;20553;-87
2022/09/15 01:58:55;;;;;;;11.05;7.43;;;;;;;21.18;62.89;92449.25;4993468;28;20037;-90
2022/09/15 02:01:39;;;;;;;10.73;7.32;;;;;;;21.14;62.84;92440.63;4991270;28;20360;-87
2022/09/15 02:04:17;;;;;;;8.07;6.15;;;;;;;21.15;62.98;92438.63;4990329;28;20064;-86
2022/09/15 02:06:56;;;;;;;7.60;6.30;;;;;;;21.14;62.90;92437.88;4993697;28;20053;-87
2022/09/15 02:09:28;;;;;;;12.18;6.07;;;;;;;21.14;63.02;92440.63;5008280;28;20037;-87
2022/09/15 02:12:18;;;;;;;10.00;6.03;;;;;;;21.14;62.92;92446.13;4989171;28;20386;-86
2022/09/15 02:15:02;;;;;;;7.55;6.20;;;;;;;21.13;62.80;92441.91;5006190;28;20061;-87
2022/09/15 02:17:28;;;;;;;7.40;5.80;;;;;;;21.16;62.84;92446.31;4993421;28;20278;-87
2022/09/15 02:19:56;;;;;;;8.05;5.82;;;;;;;21.14;62.79;92454.38;4985602;28;20764;-89
2022/09/15 02:22:26;;;;;;;7.55;5.60;;;;;;;21.13;62.72;92447.41;4995236;28;20061;-86
2022/09/15 02:24:55;;;;;;;;;;;;;;;21.13;62.71;92441.91;4970022;28;20030;-87
2022/09/15 02:27:22;;;;;;;9.20;5.38;;;;;;;21.12;62.79;92448.69;4989485;28;19924;-87
2022/09/15 02:29:48;;;;;;;7.57;5.93;;;;;;;21.13;62.71;92444.66;4976108;28;20045;-87
2022/09/15 02:32:14;;;;;;;9.88;5.95;;;;;;;21.13;62.77;92446.69;5003020;28;20050;-88
2022/09/15 02:34:41;;;;;;;8.27;5.55;;;;;;;21.11;62.97;92444.47;4963017;28;20062;-88
2022/09/15 02:37:07;;;;;;;6.55;5.53;;;;;;;21.12;62.74;92442.47;4972962;28;20436;-88
2022/09/15 02:39:35;;;;;;;6.95;5.40;;;;;;;21.12;62.79;92436.97;4971757;28;20038;-87
2022/09/15 02:42:01;;;;;;;7.40;5.88;;;;;;;21.13;62.85;92435.69;4978381;28;20038;-86
2022/09/15 02:44:29;;;;;;;7.43;5.47;;;;;;;21.12;62.65;92429.47;4988367;28;20065;-88
2022/09/15 02:46:56;;;;;;;6.45;5.40;;;;;;;21.11;63.03;92432.75;4978562;28;20058;-88
2022/09/15 02:49:21;;;;;;;7.53;5.35;;;;;;;21.11;62.79;92438.25;4992556;28;20141;-89
2022/09/15 02:51:47;;;;;;;7.15;5.28;;;;;;;21.12;62.87;92429.47;4967509;28;20089;-89
2022/09/15 02:54:12;;;;;;;6.72;5.07;;;;;;;21.12;62.74;92434.22;4972588;28;20133;-87
2022/09/15 02:56:38;;;;;;;8.55;6.00;;;;;;;21.11;62.79;92432.75;4974940;28;20397;-88
2022/09/15 02:59:03;;;;;;;8.00;5.65;;;;;;;21.11;62.53;92425.25;4984667;28;20054;-86
2022/09/15 03:01:33;;;;;;;7.57;5.63;;;;;;;21.14;62.46;92428.91;4960746;28;20048;-88
2022/09/15 03:04:02;;;;;;;6.20;5.43;;;;;;;21.13;62.80;92433.69;4988886;28;20034;-88
2022/09/15 03:06:33;;;;;;;7.65;5.03;;;;;;;21.10;62.62;92429.28;4973098;28;20322;-87
2022/09/15 03:08:59;;;;;;;;;;;;;;;21.13;62.47;92435.69;4974153;28;20209;-87
2022/09/15 03:11:25;;;;;;;8.02;5.38;;;;;;;21.10;62.63;92440.28;4972341;28;20025;-87
2022/09/15 03:13:55;;;;;;;5.90;4.90;;;;;;;21.09;62.83;92441.56;4975533;28;20064;-87
2022/09/15 03:16:20;;;;;;;5.78;4.57;;;;;;;21.11;62.66;92433.50;4992291;28;20037;-87
2022/09/15 03:18:47;;;;;;;6.25;4.53;;;;;;;21.08;62.58;92437.34;4989274;28;20096;-86
2022/09/15 03:21:16;;;;;;;6.82;5.00;;;;;;;21.10;62.29;92436.78;4970395;28;20042;-87
2022/09/15 03:23:41;;;;;;;5.15;4.15;;;;;;;21.10;62.37;92431.28;4986888;28;20125;-87
2022/09/15 03:26:07;;;;;;;5.78;4.50;;;;;;;21.10;62.42;92428.53;4979645;28;20075;-87
2022/09/15 03:28:33;;;;;;;6.95;4.80;;;;;;;21.10;62.18;92434.03;4974862;28;20039;-87
2022/09/15 03:30:59;;;;;;;5.95;4.20;;;;;;;21.10;62.09;92434.78;4956436;28;20451;-88
2022/09/15 03:33:26;;;;;;;5.60;4.53;;;;;;;21.11;62.06;92438.25;4989854;28;20443;-87
2022/09/15 03:35:52;;;;;;;5.72;4.43;;;;;;;21.13;62.17;92432.94;4972350;28;20133;-88
2022/09/15 03:38:17;;;;;;;5.63;4.32;;;;;;;21.10;62.14;92431.28;4980669;28;20087;-86
2022/09/15 03:40:43;;;;;;;4.30;3.85;;;;;;;21.09;62.09;92425.06;4975460;28;20068;-87
2022/09/15 03:43:09;;;;;;;6.93;4.88;;;;;;;21.11;62.14;92413.53;4974725;28;20092;-86
2022/09/15 03:45:36;;;;;;;6.53;4.45;;;;;;;21.09;62.09;92419.56;4974253;28;20038;-87
2022/09/15 03:48:05;;;;;;;5.80;4.18;;;;;;;21.09;62.44;92413.34;4981534;28;20035;-87
2022/09/15 03:50:31;;;;;;;5.78;4.45;;;;;;;21.11;62.22;92419.75;4983462;28;20119;-87
2022/09/15 03:52:59;;;;;;;6.57;4.35;;;;;;;21.09;62.33;92422.31;4975698;28;20030;-87
2022/09/15 03:55:25;;;;;;;5.60;4.30;;;;;;;21.08;62.14;92418.09;4974446;28;20038;-86
2022/09/15 03:57:51;;;;;;;5.72;4.18;;;;;;;21.10;62.16;92404.53;4981094;28;20453;-87
2022/09/15 04:00:16;;;;;;;4.70;4.00;;;;;;;21.12;62.16;92415.72;4988496;28;20068;-89
2022/09/15 04:02:42;;;;;;;5.20;4.28;;;;;;;21.11;61.99;92408.03;4992550;28;20408;-87
2022/09/15 04:05:08;;;;;;;6.32;4.00;;;;;;;21.11;61.84;92411.50;4974307;28;20472;-88
2022/09/15 04:07:33;;;;;;;5.22;4.13;;;;;;;21.13;61.68;92413.72;4976151;28;20045;-88
2022/09/15 04:09:59;;;;;;;8.05;5.18;;;;;;;21.11;62.03;92419.03;5005823;28;20242;-88
2022/09/15 04:12:25;;;;;;;6.80;4.30;;;;;;;21.14;61.87;92409.69;4995667;28;20037;-88
2022/09/15 04:14:50;;;;;;;4.45;3.58;;;;;;;21.15;61.98;92409.13;4986353;28;20049;-89
2022/09/15 04:17:16;;;;;;;5.60;4.35;;;;;;;21.15;61.93;92422.13;5007687;28;20034;-89
2022/09/15 04:19:41;;;;;;;9.38;4.57;;;;;;;21.09;61.79;92411.31;4991117;28;20038;-90
2022/09/15 04:22:07;;;;;;;9.50;4.93;;;;;;;21.09;61.39;92410.59;4976428;28;20038;-89
2022/09/15 04:24:32;;;;;;;13.32;5.65;;;;;;;21.03;61.58;92408.03;4974594;28;20065;-88
2022/09/15 04:26:57;;;;;;;10.82;5.55;;;;;;;21.01;61.52;92410.59;5007612;28;20112;-88
2022/09/15 04:29:23;;;;;;;7.72;3.50;;;;;;;21.03;61.12;92410.78;4975306;28;20050;-88
2022/09/15 04:31:49;;;;;;;13.43;3.85;;;;;;;20.98;61.79;92408.97;4974740;28;20045;-91
2022/09/15 04:34:14;;;;;;;7.78;3.80;;;;;;;20.98;61.26;92398.00;4971599;28;20053;-89
2022/09/15 04:36:40;;;;;;;12.43;3.85;;;;;;;21.05;61.47;92410.97;4974308;28;20038;-88
2022/09/15 04:39:05;;;;;;;11.10;3.10;;;;;;;21.02;61.35;92405.84;5002693;28;20030;-90
2022/09/15 04:41:32;;;;;;;14.88;3.50;;;;;;;21.00;61.45;92400.19;4992239;28;20491;-89
2022/09/15 04:43:58;;;;;;;9.93;3.20;;;;;;;21.01;61.53;92396.13;4970471;28;20057;-89
2022/09/15 04:46:23;;;;;;;12.35;3.45;;;;;;;20.98;61.18;92403.47;4996082;28;20034;-90
2022/09/15 04:48:49;;;;;;;15.18;3.10;;;;;;;20.94;61.36;92394.88;4981960;28;20046;-91
2022/09/15 04:51:16;;;;;;;20.90;4.30;;;;;;;20.97;61.19;92399.28;4975858;28;20113;-90
2022/09/15 04:53:42;;;;;;;15.90;3.67;;;;;;;20.93;61.07;92406.41;4976971;28;20222;-89
2022/09/15 04:56:11;;;;;;;28.58;7.57;;;;;;;20.91;61.24;92411.72;4992440;28;20038;-89
2022/09/15 04:58:37;;;;;;;16.17;7.75;;;;;;;20.86;61.16;92405.88;4991641;28;20092;-91
2022/09/15 05:01:08;;;;;;;19.50;8.52;;;;;;;20.86;60.84;92396.88;4974851;28;20089;-91
2022/09/15 05:03:35;;;;;;;32.72;9.27;;;;;;;20.89;61.12;92390.28;4972402;28;20061;-92
2022/09/15 05:06:00;;;;;;;27.65;7.75;;;;;;;20.87;61.22;92385.34;4975937;28;20069;-90
2022/09/15 05:08:26;;;;;;;33.67;8.82;;;;;;;20.87;60.96;92382.59;4993152;28;20092;-92
2022/09/15 05:10:52;;;;;;;25.27;6.80;;;;;;;20.87;60.90;92379.84;4994878;28;20037;-91
2022/09/15 05:13:17;;;;;;;30.35;7.75;;;;;;;20.83;60.93;92376.75;4973589;28;20043;-92
2022/09/15 05:15:43;;;;;;;31.42;7.97;;;;;;;20.83;60.97;92371.25;4973837;28;20073;-89
2022/09/15 05:18:08;;;;;;;37.97;11.18;;;;;;;20.84;61.00;92375.47;4994118;28;20223;-91
2022/09/15 05:20:33;;;;;;;76.22;17.58;;;;;;;20.87;61.10;92384.63;5002050;28;20029;-91
2022/09/15 05:22:59;;;;;;;39.03;11.25;;;;;;;20.84;60.90;92388.47;5009436;28;20069;-91
2022/09/15 05:25:24;;;;;;;50.83;11.80;;;;;;;20.83;60.95;92395.25;4975304;28;20034;-90
2022/09/15 05:27:50;;;;;;;34.10;10.52;;;;;;;20.82;61.02;92399.28;4991470;28;20050;-91
2022/09/15 05:30:16;;;;;;;30.83;9.05;;;;;;;20.82;61.02;92386.25;4987100;28;20041;-90
2022/09/15 05:32:41;;;;;;;26.50;8.18;;;;;;;20.79;60.84;92394.88;4993003;28;20030;-90
2022/09/15 05:35:07;;;;;;;41.90;10.65;;;;;;;20.84;60.78;92399.44;4976334;28;20092;-91
2022/09/15 05:37:32;;;;;;;41.53;11.57;;;;;;;20.82;60.85;92400.00;4993026;28;20038;-89
2022/09/15 05:39:58;;;;;;;56.58;14.70;;;;;;;20.79;60.84;92392.84;5001170;28;20033;-89
2022/09/15 05:42:24;;;;;;;114.70;21.65;;;;;;;20.80;61.01;92401.84;4991685;28;20042;-92
2022/09/15 05:44:50;;;;;;;238.95;49.72;;;;;;;20.85;60.82;92407.16;4990279;28;20066;-91
2022/09/15 05:47:16;;;;;;;92.13;19.60;;;;;;;20.82;60.85;92407.50;4975060;28;20052;-89
2022/09/15 05:49:41;;;;;;;73.15;14.82;;;;;;;20.77;60.90;92416.69;4990446;28;20033;-90
2022/09/15 05:52:06;;;;;;;68.95;12.75;;;;;;;20.77;60.88;92425.66;4977656;28;20038;-90
2022/09/15 05:54:32;;;;;;;76.82;18.38;;;;;;;20.76;60.71;92435.19;4985683;28;20058;-90
2022/09/15 05:56:57;;;;;;;40.65;12.20;;;;;;;20.76;61.05;92429.69;4985097;28;20057;-90
2022/09/15 05:59:23;;;;;;;44.35;11.32;;;;;;;20.79;60.87;92425.09;4975678;28;20045;-87
2022/09/15 06:01:48;;;;;;;47.47;11.52;;;;;;;20.78;60.96;92434.63;4991603;28;20026;-87
2022/09/15 06:04:13;;;;;;;42.40;9.35;;;;;;;20.79;60.70;92433.31;4972481;28;20471;-89
2022/09/15 06:06:39;;;;;;;55.10;12.30;;;;;;;20.83;60.94;92426.19;4991267;28;20049;-89
2022/09/15 06:09:04;;;;;;;43.67;13.98;;;;;;;20.80;60.80;92438.28;4992478;28;20069;-89
2022/09/15 06:11:30;;;;;;;78.95;27.35;;;;;;;20.82;60.50;92440.47;4980882;28;20069;-91
2022/09/15 06:13:58;;;;;;;55.97;18.35;;;;;;;20.79;60.61;92447.78;4992737;28;20038;-89
2022/09/15 06:16:25;;;;;;;35.65;13.55;;;;;;;20.78;60.45;92445.63;4990059;28;20121;-90
2022/09/15 06:18:51;;;;;;;27.10;12.27;;;;;;;20.78;60.59;92451.84;4995402;28;20045;-88
2022/09/15 06:21:21;;;;;;;28.13;11.85;;;;;;;20.83;60.49;92461.16;4961930;28;20033;-90
2022/09/15 06:23:51;;;;;;;26.07;10.80;;;;;;;20.85;60.49;92464.84;4978314;28;20117;-90
2022/09/15 06:26:17;;;;;;;24.42;11.88;;;;;;;20.84;60.54;92470.88;4993207;28;20038;-91
2022/09/15 06:28:52;;;;;;;22.20;11.60;;;;;;;20.80;60.71;92476.72;4975952;28;20034;-89
2022/09/15 06:31:17;;;;;;;26.80;11.93;;;;;;;20.81;60.55;92474.72;4992439;28;20503;-89
2022/09/15 06:33:44;;;;;;;23.88;10.57;;;;;;;20.78;60.66;92470.34;4985704;28;20045;-92
2022/09/15 06:36:10;;;;;;;25.95;11.20;;;;;;;20.80;60.53;92468.50;4977681;28;20101;-90
2022/09/15 06:38:37;;;;;;;73.38;28.90;;;;;;;20.81;60.69;92480.94;4993507;28;20042;-92
2022/09/15 06:41:02;;;;;;;72.57;27.00;;;;;;;20.81;60.77;92466.47;4979260;28;20113;-90
2022/09/15 06:43:29;;;;;;;30.23;11.18;;;;;;;20.80;60.87;92473.25;4973577;28;20088;-89
2022/09/15 06:46:01;;;;;;;40.35;14.15;;;;;;;20.80;60.71;92470.50;4992949;28;20111;-89
2022/09/15 06:48:26;;;;;;;25.10;12.15;;;;;;;20.78;60.88;92473.09;5009298;28;20093;-88
2022/09/15 06:50:53;;;;;;;36.28;14.18;;;;;;;20.81;60.75;92458.22;4980107;28;20037;-89
2022/09/15 06:53:19;;;;;;;46.38;11.48;;;;;;;20.79;60.72;92463.53;4995619;28;20407;-91
2022/09/15 06:55:44;;;;;;;32.97;11.32;;;;;;;20.80;60.80;92459.50;4993279;28;20073;-91
2022/09/15 06:58:10;;;;;;;26.45;10.27;;;;;;;20.77;60.96;92474.38;4991337;28;20459;-89
2022/09/15 07:00:36;;;;;;;30.27;11.25;;;;;;;20.81;60.92;92469.94;4993697;28;20042;-90
2022/09/15 07:03:01;;;;;;;34.13;14.25;;;;;;;20.80;60.92;92471.22;5001399;28;20045;-91
2022/09/15 07:05:28;;;;;;;52.80;19.80;;;;;;;20.81;61.13;92474.72;4985207;28;20524;-91
2022/09/15 07:07:54;;;;;;;74.38;21.52;;;;;;;20.84;60.77;92471.59;4981842;28;20049;-90
2022/09/15 07:10:19;;;;;;;56.72;22.55;;;;;;;20.85;60.76;92469.59;4994469;28;20090;-90
2022/09/15 07:12:45;;;;;;;76.47;24.00;;;;;;;20.86;60.88;92471.78;4977595;28;20416;-91
2022/09/15 07:15:10;;;;;;;47.13;18.63;;;;;;;20.83;60.83;92475.63;4978283;28;20036;-91
2022/09/15 07:17:36;;;;;;;43.00;14.38;;;;;;;20.88;60.68;92463.75;4977269;28;20465;-91
2022/09/15 07:20:02;;;;;;;56.55;16.77;;;;;;;20.84;60.85;92468.84;4977664;28;20068;-91
2022/09/15 07:22:27;;;;;;;43.67;14.05;;;;;;;20.83;60.79;92458.41;4973321;28;20030;-92
2022/09/15 07:24:53;;;;;;;41.47;15.32;;;;;;;20.86;60.75;92471.06;4968667;28;20034;-92
2022/09/15 07:27:18;;;;;;;36.53;14.27;;;;;;;20.87;60.61;92465.00;4975354;28;20242;-92
2022/09/15 07:29:44;;;;;;;43.13;13.25;;;;;;;20.87;60.72;92467.03;4976542;28;20038;-93
2022/09/15 07:32:09;;;;;;;29.20;10.57;;;;;;;20.87;60.17;92467.75;4969730;28;20050;-89
2022/09/15 07:34:35;;;;;;;29.02;11.65;;;;;;;20.84;60.58;92468.84;4992605;28;20047;-91
2022/09/15 07:37:01;;;;;;;44.28;13.82;;;;;;;20.84;60.28;92479.13;4993001;28;20042;-92
2022/09/15 07:39:28;;;;;;;48.78;16.90;;;;;;;20.84;60.70;92484.59;4993188;28;20042;-93
2022/09/15 07:41:53;;;;;;;46.05;14.45;;;;;;;20.87;60.67;92489.75;4979780;28;20060;-90
2022/09/15 07:44:21;;;;;;;53.83;13.43;;;;;;;20.85;60.22;92488.81;4973312;28;20742;-90
2022/09/15 07:46:53;;;;;;;34.42;10.55;;;;;;;20.82;60.05;92482.41;4973599;28;20050;-89
2022/09/15 07:49:19;;;;;;;41.05;12.40;;;;;;;20.77;60.21;92488.09;4965815;28;20095;-91
2022/09/15 07:51:44;;;;;;;58.78;13.55;;;;;;;20.76;60.00;92484.63;4975951;28;20092;-89
2022/09/15 07:54:10;;;;;;;77.68;19.00;;;;;;;20.79;60.14;92482.75;4975700;28;20030;-90
2022/09/15 07:56:35;;;;;;;64.28;15.48;;;;;;;20.83;60.13;92485.88;4983591;28;20049;-89
2022/09/15 07:59:01;;;;;;;53.15;12.07;;;;;;;20.82;60.17;92496.13;4978548;28;20511;-89
2022/09/15 08:01:26;;;;;;;22.67;7.20;;;;;;;20.80;60.43;92495.97;4977880;28;20147;-88
2022/09/15 08:03:52;;;;;;;35.45;10.18;;;;;;;20.77;60.43;92504.59;4974287;28;20042;-93
2022/09/15 08:06:20;;;;;;;21.13;7.97;;;;;;;20.77;60.72;92494.34;4971353;28;20061;-91
2022/09/15 08:08:46;;;;;;;16.45;7.00;;;;;;;20.75;60.39;92496.88;4993298;28;20039;-90
2022/09/15 08:11:15;;;;;;;21.30;6.60;;;;;;;20.73;60.59;92504.22;4971511;28;20046;-91
2022/09/15 08:13:42;;;;;;;31.85;6.13;;;;;;;20.72;60.38;92500.00;4982189;28;20080;-89
2022/09/15 08:16:09;;;;;;;20.30;6.10;;;;;;;20.70;60.85;92503.28;4989485;28;20049;-90
2022/09/15 08:18:35;;;;;;;15.07;5.18;;;;;;;20.73;60.69;92498.72;4975660;28;20092;-92
2022/09/15 08:21:12;;;;;;;16.10;5.60;;;;;;;20.75;60.58;92496.16;4977859;28;20034;-91
2022/09/15 08:23:51;;;;;;;12.68;5.45;;;;;;;20.73;60.96;92501.47;4973194;28;20034;-92
2022/09/15 08:26:17;;;;;;;12.35;5.05;;;;;;;20.71;61.10;92504.75;4987268;28;20038;-89
2022/09/15 08:28:43;;;;;;;10.57;4.82;;;;;;;20.69;61.11;92496.31;4982300;28;20054;-89
2022/09/15 08:31:10;;;;;;;28.27;9.38;;;;;;;20.68;60.97;92496.88;5007260;28;20048;-90
2022/09/15 08:33:35;;;;;;;47.22;17.33;;;;;;;20.68;61.26;92496.88;4966517;28;20042;-89
2022/09/15 08:36:03;;;;;;;54.72;21.88;;;;;;;20.67;61.56;92495.41;4972761;28;20606;-88
2022/09/15 08:38:28;;;;;;;66.43;23.70;;;;;;;20.64;61.57;92507.47;4978357;28;20042;-88
2022/09/15 08:41:06;;;;;;;67.47;20.63;;;;;;;20.66;61.37;92493.94;4996316;28;20049;-91
2022/09/15 08:43:39;;;;;;;60.78;19.02;;;;;;;20.65;61.45;92489.72;4989037;28;20412;-90
2022/09/15 08:46:05;;;;;;;63.10;17.98;;;;;;;20.65;61.71;92503.44;4974198;28;20088;-90
2022/09/15 08:48:37;;;;;;;35.67;14.90;;;;;;;20.63;61.61;92503.25;4998972;28;20101;-91
2022/09/15 08:51:09;;;;;;;60.65;15.43;;;;;;;20.61;61.51;92503.06;4997050;28;20046;-92
2022/09/15 08:53:36;;;;;;;45.42;15.15;;;;;;;20.63;61.34;92500.53;4979739;28;20120;-92
2022/09/15 08:56:04;;;;;;;55.00;20.77;;;;;;;20.61;61.50;92503.06;4997554;28;20085;-91
2022/09/15 08:58:36;;;;;;;46.45;16.77;;;;;;;20.63;61.65;92506.75;4975612;28;20436;-92
2022/09/15 09:01:18;;;;;;;43.03;13.73;;;;;;;20.63;61.52;92497.78;4992725;28;20372;-92
2022/09/15 09:04:21;;;;;;;39.90;13.20;;;;;;;20.66;61.49;92507.66;4994549;28;20141;-87
2022/09/15 09:06:49;;;;;;;46.88;14.05;;;;;;;20.60;61.43;92499.59;5012743;28;20046;-90
2022/09/15 09:09:23;;;;;;;44.42;11.27;;;;;;;20.63;61.69;92498.50;5008049;28;20559;-90
2022/09/15 09:11:55;;;;;;;29.08;9.43;;;;;;;20.60;61.42;92494.09;4994701;28;20104;-90
2022/09/15 09:14:35;;;;;;;25.60;8.88;;;;;;;20.63;61.43;92500.53;4995112;28;20050;-90
2022/09/15 09:17:19;;;;;;;109.68;19.17;;;;;;;20.62;61.59;92491.53;4991217;28;20039;-90
2022/09/15 09:20:19;;;;;;;53.53;14.38;;;;;;;20.66;61.45;92502.19;4988439;28;20049;-91
2022/09/15 09:22:48;;;;;;;46.92;12.32;;;;;;;20.61;61.36;92489.34;5004470;28;20103;-91
2022/09/15 09:25:17;;;;;;;50.30;13.45;;;;;;;20.57;61.52;92486.97;5000092;28;20037;-90
2022/09/15 09:27:45;;;;;;;151.80;23.67;;;;;;;20.60;61.71;92480.38;4976220;28;20034;-92
2022/09/15 09:30:20;;;;;;;92.80;18.92;;;;;;;20.55;61.61;92478.56;4964149;28;20047;-89
2022/09/15 09:33:18;;;;;;;30.23;9.82;;;;;;;20.58;61.37;92484.94;4972706;28;20038;-91
2022/09/15 09:35:46;;;;;;;40.92;9.73;;;;;;;20.55;62.82;92486.81;5007279;28;20183;-90
2022/09/15 09:38:17;;;;;;;45.63;10.15;;;;;;;20.56;61.83;92487.53;5015131;28;20072;-91
2022/09/15 09:40:42;;;;;;;77.78;14.13;;;;;;;20.59;61.87;92487.16;4987178;28;20041;-89
2022/09/15 09:43:07;;;;;;;101.50;17.17;;;;;;;20.56;62.13;92482.03;4995079;28;20037;-90
2022/09/15 09:45:33;;;;;;;96.07;16.50;;;;;;;20.53;61.99;92473.63;4992973;28;20041;-90
2022/09/15 09:48:02;;;;;;;40.55;8.05;;;;;;;20.53;61.91;92478.38;4992176;28;20045;-92
2022/09/15 09:50:42;;;;;;;27.50;6.87;;;;;;;20.55;62.21;92475.09;5012628;28;20045;-91
2022/09/15 09:53:29;;;;;;;28.92;7.72;;;;;;;20.57;62.12;92469.78;4979136;28;20149;-89
2022/09/15 09:56:14;;;;;;;40.58;11.10;;;;;;;20.56;61.62;92469.03;5015069;28;20447;-90
2022/09/15 09:58:40;;;;;;;42.92;12.23;;;;;;;20.54;61.92;92455.13;5000922;28;20057;-90
2022/09/15 10:01:10;;;;;;;25.38;8.75;;;;;;;20.50;61.97;92468.47;4981387;28;20107;-89
2022/09/15 10:03:37;;;;;;;22.17;7.57;;;;;;;20.49;61.93;92461.53;4974576;28;20120;-89
2022/09/15 10:06:12;;;;;;;16.98;5.85;;;;;;;20.49;62.08;92453.28;5003609;28;20047;-90
2022/09/15 10:08:37;;;;;;;13.10;5.30;;;;;;;20.46;62.43;92457.13;4995972;28;20053;-90
2022/09/15 10:11:09;;;;;;;14.30;5.13;;;;;;;20.46;62.33;92446.16;4989301;28;20069;-89
2022/09/15 10:13:34;;;;;;;11.68;5.68;;;;;;;20.48;62.30;92446.31;4975989;28;20041;-90
2022/09/15 10:16:00;;;;;;;170.05;145.70;;;;;;;20.46;62.37;92449.63;4995110;28;20042;-89
2022/09/15 10:18:30;;;;;;;185.00;155.38;;;;;;;20.52;62.22;92435.72;4982289;28;20472;-91
2022/09/15 10:20:56;;;;;;;818.47;722.53;;;;;;;20.47;62.42;92439.38;4974909;28;20060;-89
2022/09/15 10:23:24;;;;;;;142.73;127.10;;;;;;;20.48;62.24;92430.59;4982284;28;20043;-90
2022/09/15 10:25:50;;;;;;;62.65;44.22;;;;;;;20.49;61.96;92434.06;4982638;28;20502;-90
2022/09/15 10:28:22;;;;;;;10.98;6.53;;;;;;;20.46;62.21;92424.19;4981626;28;20064;-90
2022/09/15 10:30:59;;;;;;;26.83;6.75;;;;;;;20.50;62.23;92435.53;4986613;28;20068;-90
2022/09/15 10:33:26;;;;;;;14.25;6.20;;;;;;;20.49;62.60;92431.31;4981650;28;20030;-91
2022/09/15 10:35:52;;;;;;;16.38;7.95;;;;;;;20.44;62.50;92446.69;4979538;28;20042;-90
2022/09/15 10:38:25;;;;;;;23.75;9.90;;;;;;;20.45;62.45;92431.69;4981236;28;20048;-91
2022/09/15 10:41:21;;;;;;;22.25;9.82;;;;;;;20.48;62.63;92427.84;4987164;28;20052;-90
2022/09/15 10:44:24;;;;;;;18.05;8.73;;;;;;;20.49;62.41;92431.31;5013352;28;20034;-90
2022/09/15 10:47:11;;;;;;;21.67;7.15;;;;;;;20.52;62.60;92430.97;5025058;28;20129;-92
2022/09/15 10:49:47;;;;;;;9.02;5.55;;;;;;;20.52;62.52;92424.75;5017477;28;20048;-92
2022/09/15 10:52:12;;;;;;;12.40;5.32;;;;;;;20.46;62.72;92422.16;5016671;28;20053;-92
2022/09/15 10:54:51;;;;;;;247.85;220.85;;;;;;;20.48;62.68;92427.13;5016484;28;20041;-91
2022/09/15 10:57:32;;;;;;;12.90;5.75;;;;;;;20.50;62.83;92427.28;5017419;28;20034;-92
2022/09/15 11:00:21;;;;;;;11.10;5.28;;;;;;;20.51;62.66;92415.78;4987185;28;20049;-91
2022/09/15 11:03:18;;;;;;;13.68;5.47;;;;;;;20.50;62.98;92414.31;4998905;28;20037;-91
2022/09/15 11:05:53;;;;;;;16.13;5.53;;;;;;;20.48;62.75;92407.91;4996638;28;20049;-90
2022/09/15 11:08:41;;;;;;;6.32;4.93;;;;;;;20.53;62.74;92401.50;4993751;28;20041;-93
2022/09/15 11:11:33;;;;;;;9.23;4.32;;;;;;;20.53;63.03;92407.72;4979397;28;20034;-91
2022/09/15 11:14:27;;;;;;;11.18;5.70;;;;;;;20.54;62.70;92400.22;5021833;28;20075;-89
2022/09/15 11:17:10;;;;;;;24.33;9.93;;;;;;;20.53;62.57;92404.25;5026395;28;20053;-89
2022/09/15 11:19:51;;;;;;;34.50;12.65;;;;;;;20.55;62.58;92407.19;5000452;28;20039;-91
2022/09/15 11:22:20;;;;;;;41.03;11.35;;;;;;;20.52;62.62;92405.53;4983201;28;20054;-92
2022/09/15 11:24:53;;;;;;;47.42;14.57;;;;;;;20.52;62.70;92406.25;4991418;28;20054;-90
2022/09/15 11:27:55;;;;;;;48.80;21.13;;;;;;;20.54;62.75;92405.72;4943169;28;20133;-91
2022/09/15 11:30:30;;;;;;;61.03;25.10;;;;;;;20.54;62.85;92400.22;4934474;29;20048;-91
2022/09/15 11:33:12;;;;;;;62.63;25.38;;;;;;;20.51;62.87;92388.31;4892382;29;20059;-90
2022/09/15 11:35:52;;;;;;;46.60;18.40;;;;;;;20.53;62.58;92401.50;4892457;29;20071;-90